Time;durP1;ratioP1;P1;durP2;ratioP2;P2;SDS_P1;SDS_P2;PMS_P1;PMS_P2;Temp;Humidity;BMP_temperature;BMP_pressure;BME280_temperature;BME280_humidity;BME280_pressure;Samples;Min_cycle;Max_cycle;Signal;HPM_P1;HPM_P2
2023/06/02 04:52:21;;;;;;;;;;;;;;;16.73;60.49;99854.56;108047;1281;22620;-48
2023/06/02 04:54:49;;;;;;;;;;;;;;;16.91;59.70;99856.10;107992;1276;22521;-48
2023/06/02 04:57:18;;;;;;;;;;;;;;;17.10;59.00;99853.18;106773;1282;22511;-49
2023/06/02 04:59:45;;;;;;;;;;;;;;;17.29;58.53;99849.38;106987;1282;24116;-50
2023/06/02 05:02:13;;;;;;;;;;;;;;;17.46;58.46;99846.83;106780;1282;25256;-49
2023/06/02 05:04:41;;;;;;;;;;;;;;;17.64;58.20;99846.21;107012;1282;25380;-51
2023/06/02 05:07:10;;;;;;;;;;;;;;;17.82;57.80;99843.27;107386;1278;24195;-49
2023/06/02 05:09:37;;;;;;;;;;;;;;;17.99;57.16;99846.70;107529;1282;25269;-47
2023/06/02 05:12:06;;;;;;;;;;;;;;;18.17;56.62;99845.33;107151;1282;22533;-49
2023/06/02 05:14:34;;;;;;;;;;;;;;;18.33;56.11;99840.10;109518;1282;25253;-47
2023/06/02 05:17:02;;;;;;;;;;;;;;;18.50;55.65;99840.50;107333;1282;23567;-47
2023/06/02 05:19:30;;;;;;;;;;;;;;;18.69;55.95;99840.11;109578;1281;22508;-47
2023/06/02 05:21:58;;;;;;;;;;;;;;;18.89;56.01;99838.25;109815;1282;23137;-47
2023/06/02 05:24:25;;;;;;;;;;;;;;;19.08;55.43;99839.20;109604;1282;23181;-50
2023/06/02 05:26:53;;;;;;;;;;;;;;;19.27;55.17;99836.63;109846;1282;22412;-47
2023/06/02 05:29:21;;;;;;;;;;;;;;;19.47;55.04;99837.52;108960;1281;22508;-49
2023/06/02 05:31:48;;;;;;;;;;;;;;;19.68;54.48;99837.54;109588;1281;22530;-49
2023/06/02 05:34:16;;;;;;;;;;;;;;;19.89;53.83;99834.61;107436;1281;22527;-51
2023/06/02 05:36:44;;;;;;;;;;;;;;;20.11;52.41;99830.77;109618;1282;22515;-46
2023/06/02 05:39:14;;;;;;;;;;;;;;;20.30;50.40;99828.47;109725;1281;23345;-46
2023/06/02 05:41:42;;;;;;;;;;;;;;;20.49;48.08;99826.38;109740;1282;22461;-46
2023/06/02 05:44:09;;;;;;;;;;;;;;;20.66;47.60;99821.29;109823;1281;23149;-46
2023/06/02 05:46:39;;;;;;;;;;;;;;;20.85;46.90;99826.75;109715;1282;22443;-49
2023/06/02 05:49:08;;;;;;;;;;;;;;;21.02;45.60;99821.82;109709;1282;22435;-49
2023/06/02 05:51:36;;;;;;;;;;;;;;;21.19;45.40;99823.05;109744;1282;22476;-49
2023/06/02 05:54:05;;;;;;;;;;;;;;;21.38;44.23;99821.75;109782;1282;22429;-49
2023/06/02 05:56:33;;;;;;;;;;;;;;;21.56;43.20;99822.23;109658;1282;22478;-49
2023/06/02 05:59:01;;;;;;;;;;;;;;;21.73;42.40;99819.20;109652;1282;22414;-49
2023/06/02 06:01:29;;;;;;;;;;;;;;;21.90;42.05;99815.80;109449;1282;23246;-49
2023/06/02 06:03:57;;;;;;;;;;;;;;;22.07;40.28;99818.80;109641;1281;22450;-49
2023/06/02 06:06:26;;;;;;;;;;;;;;;22.21;39.86;99814.67;109472;1282;23588;-47
2023/06/02 06:08:54;;;;;;;;;;;;;;;22.35;39.39;99816.35;109674;1275;22429;-47
2023/06/02 06:11:22;;;;;;;;;;;;;;;22.49;39.43;99810.58;109157;1275;22795;-47
2023/06/02 06:13:50;;;;;;;;;;;;;;;22.65;39.19;99813.05;108877;1280;22457;-47
2023/06/02 06:16:18;;;;;;;;;;;;;;;22.79;38.90;99813.30;109758;1275;22461;-47
2023/06/02 06:18:45;;;;;;;;;;;;;;;22.93;38.47;99814.66;109691;1277;23265;-49
2023/06/02 06:21:13;;;;;;;;;;;;;;;23.06;36.95;99818.89;109782;1275;23244;-47
2023/06/02 06:23:40;;;;;;;;;;;;;;;23.15;35.59;99815.84;109707;1278;22451;-47
2023/06/02 06:26:08;;;;;;;;;;;;;;;23.23;35.18;99811.84;109751;1278;22437;-47
2023/06/02 06:28:37;;;;;;;;;;;;;;;23.29;34.62;99807.67;109673;1275;22446;-51
2023/06/02 06:31:05;;;;;;;;;;;;;;;23.35;34.13;99806.44;109607;1280;22432;-47
2023/06/02 06:33:32;;;;;;;;;;;;;;;23.42;34.38;99810.66;109564;1277;22442;-49
2023/06/02 06:36:00;;;;;;;;;;;;;;;23.49;34.20;99807.73;109679;1281;22454;-50
2023/06/02 06:38:28;;;;;;;;;;;;;;;23.57;33.99;99802.61;109706;1276;22472;-50
2023/06/02 06:40:55;;;;;;;;;;;;;;;23.70;33.71;99801.18;109575;1277;23138;-47
2023/06/02 06:43:23;;;;;;;;;;;;;;;23.82;33.31;99800.21;109611;1277;22454;-50
2023/06/02 06:46:14;;;;;;;;;;;;;;;23.94;32.72;99801.83;109493;1275;23151;-49
2023/06/02 06:48:41;;;;;;;;;;;;;;;24.01;32.38;99802.05;109453;1275;22468;-50
2023/06/02 06:51:09;;;;;;;;;;;;;;;24.08;32.50;99803.94;109229;1276;22496;-47
2023/06/02 06:53:37;;;;;;;;;;;;;;;24.14;32.51;99803.52;108765;1275;22618;-51
2023/06/02 06:56:05;;;;;;;;;;;;;;;24.22;32.73;99802.88;109042;1278;22555;-55
2023/06/02 06:58:33;;;;;;;;;;;;;;;24.32;32.37;99800.98;109464;1275;22466;-50
2023/06/02 07:01:02;;;;;;;;;;;;;;;24.40;32.41;99799.61;109514;1268;22460;-49
2023/06/02 07:03:32;;;;;;;;;;;;;;;24.47;30.98;99798.08;109519;1278;22434;-50
2023/06/02 07:06:00;;;;;;;;;;;;;;;24.50;30.84;99798.80;109394;1275;22999;-47
2023/06/02 07:08:29;;;;;;;;;;;;;;;24.54;30.38;99795.08;109487;1281;23186;-47
2023/06/02 07:10:57;;;;;;;;;;;;;;;24.62;30.91;99794.23;109358;1281;23201;-48
2023/06/02 07:13:25;;;;;;;;;;;;;;;24.75;30.60;99794.23;109247;1276;23104;-50
2023/06/02 07:15:54;;;;;;;;;;;;;;;24.84;30.20;99790.25;108916;1280;23486;-48
2023/06/02 07:18:21;;;;;;;;;;;;;;;24.89;29.53;99789.89;109462;1281;23729;-50
2023/06/02 07:20:49;;;;;;;;;;;;;;;24.95;29.80;99788.63;109470;1277;22509;-50
2023/06/02 07:23:17;;;;;;;;;;;;;;;25.04;29.42;99787.52;109026;1277;22506;-48
2023/06/02 07:25:45;;;;;;;;;;;;;;;25.14;29.27;99788.21;109478;1280;22439;-48
2023/06/02 07:28:12;;;;;;;;;;;;;;;25.24;29.32;99788.83;109586;1276;22473;-50
2023/06/02 07:30:53;;;;;;;;;;;;;;;25.34;29.24;99789.02;109589;1276;22455;-47
2023/06/02 07:33:35;;;;;;;;;;;;;;;25.40;28.76;99794.69;109470;1275;22442;-50
2023/06/02 07:36:03;;;;;;;;;;;;;;;25.41;28.63;99787.31;109488;1281;22442;-49
2023/06/02 07:38:30;;;;;;;;;;;;;;;25.39;28.52;99786.70;109336;1276;22504;-46
2023/06/02 07:40:58;;;;;;;;;;;;;;;25.39;28.31;99789.21;109303;1278;23329;-46
2023/06/02 07:43:25;;;;;;;;;;;;;;;25.37;28.46;99792.16;109572;1280;22477;-46
2023/06/02 07:45:53;;;;;;;;;;;;;;;25.39;28.73;99791.38;109676;1277;22444;-46
2023/06/02 07:48:22;;;;;;;;;;;;;;;25.46;28.95;99792.63;109412;1275;22523;-46
2023/06/02 07:50:49;;;;;;;;;;;;;;;25.54;28.33;99790.84;109101;1277;22596;-46
2023/06/02 07:53:17;;;;;;;;;;;;;;;25.58;28.38;99786.99;108698;1282;22497;-46
2023/06/02 07:55:45;;;;;;;;;;;;;;;25.61;29.14;99787.11;109117;1275;22489;-49
2023/06/02 07:58:12;;;;;;;;;;;;;;;25.70;29.02;99786.11;109492;1277;22564;-46
2023/06/02 08:00:40;;;;;;;;;;;;;;;25.77;28.93;99782.29;109232;1281;22525;-45
2023/06/02 08:03:07;;;;;;;;;;;;;;;25.84;28.11;99778.22;109017;1282;22590;-46
2023/06/02 08:05:38;;;;;;;;;;;;;;;25.91;28.45;99784.87;109551;1275;22476;-45
2023/06/02 08:08:07;;;;;;;;;;;;;;;26.01;28.67;99788.45;109323;1282;22540;-48
2023/06/02 08:10:37;;;;;;;;;;;;;;;26.09;28.87;99783.37;108975;1276;25330;-49
2023/06/02 08:13:05;;;;;;;;;;;;;;;26.22;29.30;99789.90;109473;1282;22436;-49
2023/06/02 08:15:33;;;;;;;;;;;;;;;26.33;28.12;99792.55;108192;1282;22643;-48
2023/06/02 08:18:02;;;;;;;;;;;;;;;26.35;27.58;99788.12;108292;1278;23030;-46
2023/06/02 08:20:31;;;;;;;;;;;;;;;26.38;27.85;99785.04;109459;1282;23317;-46
2023/06/02 08:22:59;;;;;;;;;;;;;;;26.44;27.73;99784.18;109510;1275;22485;-46
2023/06/02 08:25:26;;;;;;;;;;;;;;;26.50;27.06;99782.21;109745;1282;22441;-46
2023/06/02 08:27:54;;;;;;;;;;;;;;;26.50;27.36;99777.51;109790;1280;23459;-49
2023/06/02 08:30:22;;;;;;;;;;;;;;;26.57;27.04;99781.65;109696;1281;22487;-49
2023/06/02 08:32:49;;;;;;;;;;;;;;;26.63;26.60;99774.78;109669;1280;22517;-49
2023/06/02 08:35:18;;;;;;;;;;;;;;;26.66;26.67;99775.64;109654;1282;23150;-49
2023/06/02 08:37:45;;;;;;;;;;;;;;;26.66;26.62;99776.70;109341;1282;22611;-49
2023/06/02 08:40:13;;;;;;;;;;;;;;;26.67;26.76;99771.94;109632;1278;22454;-49
2023/06/02 08:42:40;;;;;;;;;;;;;;;26.68;26.45;99769.61;108967;1275;22714;-47
2023/06/02 08:45:08;;;;;;;;;;;;;;;26.68;26.69;99770.45;109419;1282;22516;-49
2023/06/02 08:47:36;;;;;;;;;;;;;;;26.73;26.30;99768.14;109557;1277;22432;-46
2023/06/02 08:50:03;;;;;;;;;;;;;;;26.76;25.61;99767.20;109498;1280;22476;-46
2023/06/02 08:52:31;;;;;;;;;;;;;;;26.75;26.11;99766.52;109015;1280;22556;-48
2023/06/02 08:54:59;;;;;;;;;;;;;;;26.79;26.67;99762.82;109677;1278;23399;-46
2023/06/02 08:57:26;;;;;;;;;;;;;;;26.91;26.68;99766.09;109479;1281;22553;-46
2023/06/02 08:59:53;;;;;;;;;;;;;;;27.03;26.54;99767.96;109486;1276;22793;-48
2023/06/02 09:02:21;;;;;;;;;;;;;;;27.07;26.64;99762.32;109518;1276;22439;-49
2023/06/02 09:04:48;;;;;;;;;;;;;;;27.12;26.71;99757.69;109551;1276;22988;-47
2023/06/02 09:07:16;;;;;;;;;;;;;;;27.19;26.59;99758.88;109555;1281;22473;-48
2023/06/02 09:09:45;;;;;;;;;;;;;;;27.25;25.86;99753.61;109544;1281;23209;-45
2023/06/02 09:12:13;;;;;;;;;;;;;;;27.22;25.98;99750.98;109430;1277;23519;-48
2023/06/02 09:14:41;;;;;;;;;;;;;;;27.19;26.37;99749.92;109404;1280;22535;-46
2023/06/02 09:17:27;;;;;;;;;;;;;;;27.24;26.71;99749.41;109448;1281;23653;-46
2023/06/02 09:19:58;;;;;;;;;;;;;;;27.36;26.27;99762.09;109614;1277;23317;-49
2023/06/02 09:22:26;;;;;;;;;;;;;;;27.36;25.78;99756.69;109490;1280;22438;-47
2023/06/02 09:24:54;;;;;;;;;;;;;;;27.31;25.86;99751.16;109493;1281;22513;-45
2023/06/02 09:27:24;;;;;;;;;;;;;;;27.36;26.06;99752.44;109383;1282;23005;-48
2023/06/02 09:29:57;;;;;;;;;;;;;;;27.41;25.54;99745.06;109624;1282;23126;-45
2023/06/02 09:32:25;;;;;;;;;;;;;;;27.41;25.43;99748.97;109605;1282;22434;-45
2023/06/02 09:34:52;;;;;;;;;;;;;;;27.40;25.40;99744.56;109587;1282;22837;-48
2023/06/02 09:37:22;;;;;;;;;;;;;;;27.37;25.57;99746.07;109576;1282;23160;-48
2023/06/02 09:39:52;;;;;;;;;;;;;;;27.33;25.24;99741.55;109638;1282;22419;-46
2023/06/02 09:42:23;;;;;;;;;;;;;;;27.30;25.40;99731.88;109705;1283;22433;-48
2023/06/02 09:45:06;;;;;;;;;;;;;;;27.31;25.70;99736.86;109758;1281;22416;-48
2023/06/02 09:47:39;;;;;;;;;;;;;;;27.35;25.41;99733.90;109446;1282;22521;-48
2023/06/02 09:50:07;;;;;;;;;;;;;;;27.34;25.13;99732.52;109674;1282;22835;-46
2023/06/02 09:52:35;;;;;;;;;;;;;;;27.31;25.34;99729.31;109779;1282;23444;-49
2023/06/02 09:55:05;;;;;;;;;;;;;;;27.39;25.47;99723.53;109730;1282;23134;-49
2023/06/02 09:57:32;;;;;;;;;;;;;;;27.45;24.88;99724.47;109695;1282;24151;-46
2023/06/02 09:59:59;;;;;;;;;;;;;;;27.40;24.82;99726.83;109763;1282;22440;-50
2023/06/02 10:02:27;;;;;;;;;;;;;;;27.32;25.06;99727.67;109806;1281;22435;-47
2023/06/02 10:04:55;;;;;;;;;;;;;;;27.29;25.31;99722.50;109792;1281;22408;-50
2023/06/02 10:07:26;;;;;;;;;;;;;;;27.30;25.01;99716.88;109331;1282;22502;-47
2023/06/02 10:10:13;;;;;;;;;;;;;;;27.31;25.06;99716.61;109808;1282;23269;-47
2023/06/02 10:12:46;;;;;;;;;;;;;;;27.33;25.12;99715.91;109808;1281;22474;-47
2023/06/02 10:15:14;;;;;;;;;;;;;;;27.37;25.18;99709.69;109796;1281;22433;-47
2023/06/02 10:17:51;;;;;;;;;;;;;;;27.44;25.20;99701.80;109808;1281;23184;-46
2023/06/02 10:20:34;;;;;;;;;;;;;;;27.48;25.28;99698.05;109709;1281;22431;-48
2023/06/02 10:23:07;;;;;;;;;;;;;;;27.54;25.13;99694.59;109245;1279;22513;-48
2023/06/02 10:25:46;;;;;;;;;;;;;;;27.66;25.32;99698.27;109503;1276;23250;-45
2023/06/02 10:28:14;;;;;;;;;;;;;;;27.82;24.94;99689.46;109189;1281;22516;-46
2023/06/02 10:30:42;;;;;;;;;;;;;;;27.99;24.80;99689.14;109706;1281;22494;-46
2023/06/02 10:33:09;;;;;;;;;;;;;;;28.17;24.08;99689.31;109751;1281;22457;-48
2023/06/02 10:35:56;;;;;;;;;;;;;;;28.34;24.02;99687.88;109725;1280;22506;-47
2023/06/02 10:38:28;;;;;;;;;;;;;;;28.69;24.03;99685.88;109735;1275;22441;-45
2023/06/02 10:40:59;;;;;;;;;;;;;;;28.96;23.21;99681.29;109811;1281;22446;-47
2023/06/02 10:43:26;;;;;;;;;;;;;;;28.99;23.68;99692.14;109731;1277;22455;-49
2023/06/02 10:45:55;;;;;;;;;;;;;;;28.89;23.44;99684.65;109821;1282;22437;-46
2023/06/02 10:48:38;;;;;;;;;;;;;;;28.87;23.65;99680.32;109778;1281;23251;-46
2023/06/02 10:51:06;;;;;;;;;;;;;;;28.99;24.01;99684.23;109763;1280;22429;-47
2023/06/02 10:53:34;;;;;;;;;;;;;;;29.05;23.97;99681.23;109792;1281;22496;-44
2023/06/02 10:56:31;;;;;;;;;;;;;;;29.09;23.52;99676.34;109686;1281;22430;-47
2023/06/02 10:58:58;;;;;;;;;;;;;;;29.09;23.22;99677.20;109230;1284;22462;-50
2023/06/02 11:01:45;;;;;;;;;;;;;;;29.16;23.41;99676.64;109316;1286;22433;-49
2023/06/02 11:04:44;;;;;;;;;;;;;;;29.33;23.16;99668.98;109231;1287;22435;-47
2023/06/02 11:07:15;;;;;;;;;;;;;;;29.61;23.02;99668.00;109105;1289;22486;-47
2023/06/02 11:09:44;;;;;;;;;;;;;;;29.74;22.22;99664.33;107337;1290;22510;-52
2023/06/02 11:12:12;;;;;;;;;;;;;;;29.78;22.69;99666.90;109245;1287;22918;-49
2023/06/02 11:14:58;;;;;;;;;;;;;;;29.79;22.23;99669.08;109370;1285;22451;-49
2023/06/02 11:17:32;;;;;;;;;;;;;;;29.64;22.08;99674.58;109224;1289;22470;-46
2023/06/02 11:20:00;;;;;;;;;;;;;;;29.47;22.01;99672.61;109320;1286;22934;-49
2023/06/02 11:22:27;;;;;;;;;;;;;;;29.30;22.27;99668.92;109235;1283;23220;-47
